sensor_id;sensor_type;location;lat;lon;timestamp;temperature;humidity
19928;DHT22;10126;50.876;4.470;2022-08-01T00:01:20;21.50;99.90
19928;DHT22;10126;50.876;4.470;2022-08-01T00:03:21;21.60;99.90
19928;DHT22;10126;50.876;4.470;2022-08-01T00:05:21;21.60;99.90
19928;DHT22;10126;50.876;4.470;2022-08-01T00:07:22;21.60;99.90
19928;DHT22;10126;50.876;4.470;2022-08-01T00:09:23;21.60;99.90
19928;DHT22;10126;50.876;4.470;2022-08-01T00:11:23;21.70;99.90
19928;DHT22;10126;50.876;4.470;2022-08-01T00:13:24;21.70;99.90
19928;DHT22;10126;50.876;4.470;2022-08-01T00:15:24;21.70;99.90
19928;DHT22;10126;50.876;4.470;2022-08-01T00:17:25;21.70;99.90
19928;DHT22;10126;50.876;4.470;2022-08-01T00:19:26;21.70;99.90
19928;DHT22;10126;50.876;4.470;2022-08-01T00:21:26;21.70;99.90
19928;DHT22;10126;50.876;4.470;2022-08-01T00:23:27;21.70;99.90
19928;DHT22;10126;50.876;4.470;2022-08-01T00:25:28;21.60;99.90
19928;DHT22;10126;50.876;4.470;2022-08-01T00:27:28;21.60;99.90
19928;DHT22;10126;50.876;4.470;2022-08-01T00:29:29;21.60;99.90
19928;DHT22;10126;50.876;4.470;2022-08-01T00:31:30;21.40;99.90
19928;DHT22;10126;50.876;4.470;2022-08-01T00:33:30;21.30;99.90
19928;DHT22;10126;50.876;4.470;2022-08-01T00:35:31;21.30;99.90
19928;DHT22;10126;50.876;4.470;2022-08-01T00:37:32;21.30;99.90
19928;DHT22;10126;50.876;4.470;2022-08-01T00:39:32;21.20;99.90
19928;DHT22;10126;50.876;4.470;2022-08-01T00:41:33;21.10;99.90
19928;DHT22;10126;50.876;4.470;2022-08-01T00:43:34;21.10;99.90
19928;DHT22;10126;50.876;4.470;2022-08-01T00:45:34;21.20;99.90
19928;DHT22;10126;50.876;4.470;2022-08-01T00:47:35;21.30;99.90
19928;DHT22;10126;50.876;4.470;2022-08-01T00:49:36;21.30;99.90
19928;DHT22;10126;50.876;4.470;2022-08-01T00:51:36;21.40;99.90
19928;DHT22;10126;50.876;4.470;2022-08-01T00:53:38;21.40;99.90
19928;DHT22;10126;50.876;4.470;2022-08-01T00:55:39;21.20;99.90
19928;DHT22;10126;50.876;4.470;2022-08-01T00:57:40;21.20;99.90
19928;DHT22;10126;50.876;4.470;2022-08-01T00:59:40;21.30;99.90
19928;DHT22;10126;50.876;4.470;2022-08-01T01:01:41;21.20;99.90
19928;DHT22;10126;50.876;4.470;2022-08-01T01:03:42;21.40;99.90
19928;DHT22;10126;50.876;4.470;2022-08-01T01:05:53;21.40;99.90
19928;DHT22;10126;50.876;4.470;2022-08-01T01:08:12;21.20;99.90
19928;DHT22;10126;50.876;4.470;2022-08-01T01:10:21;21.30;99.90
19928;DHT22;10126;50.876;4.470;2022-08-01T01:12:27;21.30;99.90
19928;DHT22;10126;50.876;4.470;2022-08-01T01:14:36;21.30;99.90
19928;DHT22;10126;50.876;4.470;2022-08-01T01:16:41;21.30;99.90
19928;DHT22;10126;50.876;4.470;2022-08-01T01:18:49;21.30;99.90
19928;DHT22;10126;50.876;4.470;2022-08-01T01:25:41;21.30;99.90
19928;DHT22;10126;50.876;4.470;2022-08-01T01:27:57;21.20;99.90
19928;DHT22;10126;50.876;4.470;2022-08-01T01:30:00;21.10;99.90
19928;DHT22;10126;50.876;4.470;2022-08-01T01:32:07;21.30;99.90
19928;DHT22;10126;50.876;4.470;2022-08-01T01:34:12;21.20;99.90
19928;DHT22;10126;50.876;4.470;2022-08-01T01:36:14;21.20;99.90
19928;DHT22;10126;50.876;4.470;2022-08-01T01:38:22;21.10;99.90
19928;DHT22;10126;50.876;4.470;2022-08-01T01:40:24;21.10;99.90
19928;DHT22;10126;50.876;4.470;2022-08-01T01:42:26;21.10;99.90
19928;DHT22;10126;50.876;4.470;2022-08-01T01:44:31;21.00;99.90
19928;DHT22;10126;50.876;4.470;2022-08-01T01:46:33;21.00;99.90
19928;DHT22;10126;50.876;4.470;2022-08-01T01:48:34;21.00;99.90
19928;DHT22;10126;50.876;4.470;2022-08-01T01:50:36;21.10;99.90
19928;DHT22;10126;50.876;4.470;2022-08-01T01:52:39;21.10;99.90
19928;DHT22;10126;50.876;4.470;2022-08-01T01:54:44;21.10;99.90
19928;DHT22;10126;50.876;4.470;2022-08-01T01:56:46;21.00;99.90
19928;DHT22;10126;50.876;4.470;2022-08-01T01:58:53;21.10;99.90
19928;DHT22;10126;50.876;4.470;2022-08-01T02:00:55;21.10;99.90
19928;DHT22;10126;50.876;4.470;2022-08-01T02:02:57;21.00;99.90
19928;DHT22;10126;50.876;4.470;2022-08-01T02:04:58;21.00;99.90
19928;DHT22;10126;50.876;4.470;2022-08-01T02:07:00;21.00;99.90
19928;DHT22;10126;50.876;4.470;2022-08-01T02:09:02;21.10;99.90
19928;DHT22;10126;50.876;4.470;2022-08-01T02:11:03;20.90;99.90
19928;DHT22;10126;50.876;4.470;2022-08-01T02:13:19;20.80;99.90
19928;DHT22;10126;50.876;4.470;2022-08-01T02:15:22;20.90;99.90
19928;DHT22;10126;50.876;4.470;2022-08-01T02:17:24;20.90;99.90
19928;DHT22;10126;50.876;4.470;2022-08-01T02:19:25;20.90;99.90
19928;DHT22;10126;50.876;4.470;2022-08-01T02:21:33;20.80;99.90
19928;DHT22;10126;50.876;4.470;2022-08-01T02:23:37;20.70;99.90
19928;DHT22;10126;50.876;4.470;2022-08-01T02:25:42;20.70;99.90
19928;DHT22;10126;50.876;4.470;2022-08-01T02:27:59;20.60;99.90
19928;DHT22;10126;50.876;4.470;2022-08-01T02:30:06;20.60;99.90
19928;DHT22;10126;50.876;4.470;2022-08-01T02:32:12;20.60;99.90
19928;DHT22;10126;50.876;4.470;2022-08-01T02:34:17;20.80;99.90
19928;DHT22;10126;50.876;4.470;2022-08-01T02:36:20;20.90;99.90
19928;DHT22;10126;50.876;4.470;2022-08-01T02:38:24;20.90;99.90
19928;DHT22;10126;50.876;4.470;2022-08-01T02:40:28;20.90;99.90
19928;DHT22;10126;50.876;4.470;2022-08-01T02:42:31;20.90;99.90
19928;DHT22;10126;50.876;4.470;2022-08-01T02:44:35;20.90;99.90
19928;DHT22;10126;50.876;4.470;2022-08-01T02:47:00;21.00;99.90
19928;DHT22;10126;50.876;4.470;2022-08-01T02:49:04;21.10;99.90
19928;DHT22;10126;50.876;4.470;2022-08-01T02:51:06;21.20;99.90
19928;DHT22;10126;50.876;4.470;2022-08-01T02:53:08;21.20;99.90
19928;DHT22;10126;50.876;4.470;2022-08-01T02:55:11;21.20;99.90
19928;DHT22;10126;50.876;4.470;2022-08-01T02:57:13;21.20;99.90
19928;DHT22;10126;50.876;4.470;2022-08-01T02:59:17;21.10;99.90
19928;DHT22;10126;50.876;4.470;2022-08-01T03:01:20;20.90;99.90
19928;DHT22;10126;50.876;4.470;2022-08-01T03:03:21;20.80;99.90
19928;DHT22;10126;50.876;4.470;2022-08-01T03:05:25;20.90;99.90
19928;DHT22;10126;50.876;4.470;2022-08-01T03:07:26;20.80;99.90
19928;DHT22;10126;50.876;4.470;2022-08-01T03:09:33;20.70;99.90
19928;DHT22;10126;50.876;4.470;2022-08-01T03:11:37;20.70;99.90
19928;DHT22;10126;50.876;4.470;2022-08-01T03:13:41;20.60;99.90
19928;DHT22;10126;50.876;4.470;2022-08-01T03:15:44;20.40;99.90
19928;DHT22;10126;50.876;4.470;2022-08-01T03:17:47;20.40;99.90
19928;DHT22;10126;50.876;4.470;2022-08-01T03:19:49;20.40;99.90
19928;DHT22;10126;50.876;4.470;2022-08-01T03:21:51;20.50;99.90
19928;DHT22;10126;50.876;4.470;2022-08-01T03:23:53;20.40;99.90
19928;DHT22;10126;50.876;4.470;2022-08-01T03:25:57;20.40;99.90
19928;DHT22;10126;50.876;4.470;2022-08-01T03:28:01;20.30;99.90
19928;DHT22;10126;50.876;4.470;2022-08-01T03:30:04;20.30;99.90
19928;DHT22;10126;50.876;4.470;2022-08-01T03:32:06;20.30;99.90
19928;DHT22;10126;50.876;4.470;2022-08-01T03:34:06;20.40;99.90
19928;DHT22;10126;50.876;4.470;2022-08-01T03:36:09;20.40;99.90
19928;DHT22;10126;50.876;4.470;2022-08-01T03:38:12;20.40;99.90
19928;DHT22;10126;50.876;4.470;2022-08-01T03:40:24;20.50;99.90
19928;DHT22;10126;50.876;4.470;2022-08-01T03:42:35;20.50;99.90
19928;DHT22;10126;50.876;4.470;2022-08-01T03:44:38;20.50;99.90
19928;DHT22;10126;50.876;4.470;2022-08-01T03:46:48;20.60;99.90
19928;DHT22;10126;50.876;4.470;2022-08-01T03:48:50;20.50;99.90
19928;DHT22;10126;50.876;4.470;2022-08-01T03:50:52;20.40;99.90
19928;DHT22;10126;50.876;4.470;2022-08-01T03:52:54;20.40;99.90
19928;DHT22;10126;50.876;4.470;2022-08-01T03:55:05;20.30;99.90
19928;DHT22;10126;50.876;4.470;2022-08-01T03:57:08;20.30;99.90
19928;DHT22;10126;50.876;4.470;2022-08-01T03:59:10;20.40;99.90
19928;DHT22;10126;50.876;4.470;2022-08-01T04:01:11;20.40;99.90
19928;DHT22;10126;50.876;4.470;2022-08-01T04:03:13;20.40;99.90
19928;DHT22;10126;50.876;4.470;2022-08-01T04:05:17;20.50;99.90
19928;DHT22;10126;50.876;4.470;2022-08-01T04:07:29;20.50;99.90
19928;DHT22;10126;50.876;4.470;2022-08-01T04:09:31;20.60;99.90
19928;DHT22;10126;50.876;4.470;2022-08-01T04:11:32;20.50;99.90
19928;DHT22;10126;50.876;4.470;2022-08-01T04:13:33;20.30;99.90
19928;DHT22;10126;50.876;4.470;2022-08-01T04:15:34;20.20;99.90
19928;DHT22;10126;50.876;4.470;2022-08-01T04:17:35;20.10;99.90
19928;DHT22;10126;50.876;4.470;2022-08-01T04:19:35;20.10;99.90
19928;DHT22;10126;50.876;4.470;2022-08-01T04:21:37;20.20;99.90
19928;DHT22;10126;50.876;4.470;2022-08-01T04:23:40;20.10;99.90
19928;DHT22;10126;50.876;4.470;2022-08-01T04:25:43;20.10;99.90
19928;DHT22;10126;50.876;4.470;2022-08-01T04:27:48;20.20;99.90
19928;DHT22;10126;50.876;4.470;2022-08-01T04:29:51;20.30;99.90
19928;DHT22;10126;50.876;4.470;2022-08-01T04:31:56;20.30;99.90
19928;DHT22;10126;50.876;4.470;2022-08-01T04:33:59;20.30;99.90
19928;DHT22;10126;50.876;4.470;2022-08-01T04:36:02;20.40;99.90
19928;DHT22;10126;50.876;4.470;2022-08-01T04:38:03;20.30;99.90
19928;DHT22;10126;50.876;4.470;2022-08-01T04:40:06;20.20;99.90
19928;DHT22;10126;50.876;4.470;2022-08-01T04:42:07;20.20;99.90
19928;DHT22;10126;50.876;4.470;2022-08-01T04:44:08;20.20;99.90
19928;DHT22;10126;50.876;4.470;2022-08-01T04:46:12;20.30;99.90
19928;DHT22;10126;50.876;4.470;2022-08-01T04:48:16;20.50;99.90
19928;DHT22;10126;50.876;4.470;2022-08-01T04:50:17;20.50;99.90
19928;DHT22;10126;50.876;4.470;2022-08-01T04:52:22;20.40;99.90
19928;DHT22;10126;50.876;4.470;2022-08-01T04:54:27;20.40;99.90
19928;DHT22;10126;50.876;4.470;2022-08-01T04:56:28;20.50;99.90
19928;DHT22;10126;50.876;4.470;2022-08-01T04:58:28;20.40;99.90
19928;DHT22;10126;50.876;4.470;2022-08-01T05:00:29;20.40;99.90
19928;DHT22;10126;50.876;4.470;2022-08-01T05:02:30;20.50;99.90
19928;DHT22;10126;50.876;4.470;2022-08-01T05:04:31;20.50;99.90
19928;DHT22;10126;50.876;4.470;2022-08-01T05:06:32;20.60;99.90
19928;DHT22;10126;50.876;4.470;2022-08-01T05:08:32;20.70;99.90
19928;DHT22;10126;50.876;4.470;2022-08-01T05:10:34;20.60;99.90
19928;DHT22;10126;50.876;4.470;2022-08-01T05:12:35;20.60;99.90
19928;DHT22;10126;50.876;4.470;2022-08-01T05:14:36;20.70;99.90
19928;DHT22;10126;50.876;4.470;2022-08-01T05:16:37;20.80;99.90
19928;DHT22;10126;50.876;4.470;2022-08-01T05:18:37;20.80;99.90
19928;DHT22;10126;50.876;4.470;2022-08-01T05:20:38;20.90;99.90
19928;DHT22;10126;50.876;4.470;2022-08-01T05:22:39;21.00;99.90
19928;DHT22;10126;50.876;4.470;2022-08-01T05:24:40;20.90;99.90
19928;DHT22;10126;50.876;4.470;2022-08-01T05:26:40;20.90;99.90
19928;DHT22;10126;50.876;4.470;2022-08-01T05:28:41;20.90;99.90
19928;DHT22;10126;50.876;4.470;2022-08-01T05:30:42;20.80;99.90
19928;DHT22;10126;50.876;4.470;2022-08-01T05:32:43;20.80;99.90
19928;DHT22;10126;50.876;4.470;2022-08-01T05:34:43;20.70;99.90
19928;DHT22;10126;50.876;4.470;2022-08-01T05:36:44;20.80;99.90
19928;DHT22;10126;50.876;4.470;2022-08-01T05:38:45;20.80;99.90
19928;DHT22;10126;50.876;4.470;2022-08-01T05:40:46;20.60;99.90
19928;DHT22;10126;50.876;4.470;2022-08-01T05:42:46;20.70;99.90
19928;DHT22;10126;50.876;4.470;2022-08-01T05:44:47;20.70;99.90
19928;DHT22;10126;50.876;4.470;2022-08-01T05:46:48;20.60;99.90
19928;DHT22;10126;50.876;4.470;2022-08-01T05:48:48;20.60;99.90
19928;DHT22;10126;50.876;4.470;2022-08-01T05:50:49;20.70;99.90
19928;DHT22;10126;50.876;4.470;2022-08-01T05:52:50;20.80;99.90
19928;DHT22;10126;50.876;4.470;2022-08-01T05:54:51;20.90;99.90
19928;DHT22;10126;50.876;4.470;2022-08-01T05:56:52;21.10;99.90
19928;DHT22;10126;50.876;4.470;2022-08-01T05:58:52;21.10;99.90
19928;DHT22;10126;50.876;4.470;2022-08-01T06:00:53;21.20;99.90
19928;DHT22;10126;50.876;4.470;2022-08-01T06:02:54;21.40;99.90
19928;DHT22;10126;50.876;4.470;2022-08-01T06:04:55;21.60;99.90
19928;DHT22;10126;50.876;4.470;2022-08-01T06:06:55;21.60;99.90
19928;DHT22;10126;50.876;4.470;2022-08-01T06:08:56;21.60;99.90
19928;DHT22;10126;50.876;4.470;2022-08-01T06:10:57;21.50;99.90
19928;DHT22;10126;50.876;4.470;2022-08-01T06:12:57;21.60;99.90
19928;DHT22;10126;50.876;4.470;2022-08-01T06:14:58;21.60;99.90
19928;DHT22;10126;50.876;4.470;2022-08-01T06:16:59;21.60;99.90
19928;DHT22;10126;50.876;4.470;2022-08-01T06:19:00;21.80;99.90
19928;DHT22;10126;50.876;4.470;2022-08-01T06:21:00;22.00;99.90
19928;DHT22;10126;50.876;4.470;2022-08-01T06:23:01;22.10;99.90
19928;DHT22;10126;50.876;4.470;2022-08-01T06:25:01;22.10;99.90
19928;DHT22;10126;50.876;4.470;2022-08-01T06:27:02;22.20;99.90
19928;DHT22;10126;50.876;4.470;2022-08-01T06:29:03;22.40;99.90
19928;DHT22;10126;50.876;4.470;2022-08-01T06:31:04;22.40;99.90
19928;DHT22;10126;50.876;4.470;2022-08-01T06:33:04;22.40;99.90
19928;DHT22;10126;50.876;4.470;2022-08-01T06:35:05;22.10;99.90
19928;DHT22;10126;50.876;4.470;2022-08-01T06:37:06;22.00;99.90
19928;DHT22;10126;50.876;4.470;2022-08-01T06:39:07;21.90;99.90
19928;DHT22;10126;50.876;4.470;2022-08-01T06:41:07;21.80;99.90
19928;DHT22;10126;50.876;4.470;2022-08-01T06:43:08;21.70;99.90
19928;DHT22;10126;50.876;4.470;2022-08-01T06:45:10;21.90;99.90
19928;DHT22;10126;50.876;4.470;2022-08-01T06:47:11;21.90;99.90
19928;DHT22;10126;50.876;4.470;2022-08-01T06:49:12;22.10;99.90
19928;DHT22;10126;50.876;4.470;2022-08-01T06:51:12;22.10;99.90
19928;DHT22;10126;50.876;4.470;2022-08-01T06:53:18;22.20;99.90
19928;DHT22;10126;50.876;4.470;2022-08-01T06:55:19;22.20;99.90
19928;DHT22;10126;50.876;4.470;2022-08-01T06:57:20;22.30;99.90
19928;DHT22;10126;50.876;4.470;2022-08-01T06:59:20;22.60;99.90
19928;DHT22;10126;50.876;4.470;2022-08-01T07:01:21;22.90;99.90
19928;DHT22;10126;50.876;4.470;2022-08-01T07:03:21;23.00;99.90
19928;DHT22;10126;50.876;4.470;2022-08-01T07:05:22;23.10;99.90
19928;DHT22;10126;50.876;4.470;2022-08-01T07:07:23;22.90;99.90
19928;DHT22;10126;50.876;4.470;2022-08-01T07:09:24;23.10;99.90
19928;DHT22;10126;50.876;4.470;2022-08-01T07:11:24;23.00;99.90
19928;DHT22;10126;50.876;4.470;2022-08-01T07:13:26;23.10;99.90
19928;DHT22;10126;50.876;4.470;2022-08-01T07:15:27;23.40;99.90
19928;DHT22;10126;50.876;4.470;2022-08-01T07:17:27;23.50;99.90
19928;DHT22;10126;50.876;4.470;2022-08-01T07:19:28;23.50;99.90
19928;DHT22;10126;50.876;4.470;2022-08-01T07:21:29;23.30;99.90
19928;DHT22;10126;50.876;4.470;2022-08-01T07:23:29;23.20;99.90
19928;DHT22;10126;50.876;4.470;2022-08-01T07:25:30;23.30;99.90
19928;DHT22;10126;50.876;4.470;2022-08-01T07:27:31;23.30;99.90
19928;DHT22;10126;50.876;4.470;2022-08-01T07:29:32;23.50;99.90
19928;DHT22;10126;50.876;4.470;2022-08-01T07:31:32;24.00;99.90
19928;DHT22;10126;50.876;4.470;2022-08-01T07:33:33;24.70;99.90
19928;DHT22;10126;50.876;4.470;2022-08-01T07:35:34;25.10;99.90
19928;DHT22;10126;50.876;4.470;2022-08-01T07:37:38;25.90;99.90
19928;DHT22;10126;50.876;4.470;2022-08-01T07:39:39;26.40;99.90
19928;DHT22;10126;50.876;4.470;2022-08-01T07:41:40;26.20;99.90
19928;DHT22;10126;50.876;4.470;2022-08-01T07:43:40;25.80;99.90
19928;DHT22;10126;50.876;4.470;2022-08-01T07:45:41;25.60;99.90
19928;DHT22;10126;50.876;4.470;2022-08-01T07:47:42;25.60;99.90
19928;DHT22;10126;50.876;4.470;2022-08-01T07:49:43;26.00;99.90
19928;DHT22;10126;50.876;4.470;2022-08-01T07:51:43;26.30;99.90
19928;DHT22;10126;50.876;4.470;2022-08-01T07:53:44;26.00;99.90
19928;DHT22;10126;50.876;4.470;2022-08-01T07:55:45;26.30;99.90
19928;DHT22;10126;50.876;4.470;2022-08-01T07:57:45;26.30;99.90
19928;DHT22;10126;50.876;4.470;2022-08-01T07:59:46;25.90;99.90
19928;DHT22;10126;50.876;4.470;2022-08-01T08:01:46;26.10;99.90
19928;DHT22;10126;50.876;4.470;2022-08-01T08:03:47;25.80;99.90
19928;DHT22;10126;50.876;4.470;2022-08-01T08:05:48;25.90;99.90
19928;DHT22;10126;50.876;4.470;2022-08-01T08:07:50;25.80;99.90
19928;DHT22;10126;50.876;4.470;2022-08-01T08:09:51;25.60;99.90
19928;DHT22;10126;50.876;4.470;2022-08-01T08:11:52;25.40;99.90
19928;DHT22;10126;50.876;4.470;2022-08-01T08:13:52;25.00;99.90
19928;DHT22;10126;50.876;4.470;2022-08-01T08:15:53;25.10;99.90
19928;DHT22;10126;50.876;4.470;2022-08-01T08:17:54;24.80;99.90
19928;DHT22;10126;50.876;4.470;2022-08-01T08:19:55;24.70;99.90
19928;DHT22;10126;50.876;4.470;2022-08-01T08:21:55;24.80;99.90
19928;DHT22;10126;50.876;4.470;2022-08-01T08:23:56;25.20;99.90
19928;DHT22;10126;50.876;4.470;2022-08-01T08:26:15;26.00;99.90
19928;DHT22;10126;50.876;4.470;2022-08-01T08:28:16;26.40;99.90
19928;DHT22;10126;50.876;4.470;2022-08-01T08:30:17;26.50;99.90
19928;DHT22;10126;50.876;4.470;2022-08-01T08:32:17;26.60;99.90
19928;DHT22;10126;50.876;4.470;2022-08-01T08:34:18;27.20;99.90
19928;DHT22;10126;50.876;4.470;2022-08-01T08:36:19;27.30;99.90
19928;DHT22;10126;50.876;4.470;2022-08-01T08:38:20;27.30;99.90
19928;DHT22;10126;50.876;4.470;2022-08-01T08:40:22;28.30;99.90
19928;DHT22;10126;50.876;4.470;2022-08-01T08:42:24;29.30;99.90
19928;DHT22;10126;50.876;4.470;2022-08-01T08:44:25;29.10;99.90
19928;DHT22;10126;50.876;4.470;2022-08-01T08:46:27;29.20;99.90
19928;DHT22;10126;50.876;4.470;2022-08-01T08:48:28;28.80;99.90
19928;DHT22;10126;50.876;4.470;2022-08-01T08:50:29;28.20;99.90
19928;DHT22;10126;50.876;4.470;2022-08-01T08:52:30;27.80;99.90
19928;DHT22;10126;50.876;4.470;2022-08-01T08:54:37;27.70;99.90
19928;DHT22;10126;50.876;4.470;2022-08-01T08:56:38;27.10;99.90
19928;DHT22;10126;50.876;4.470;2022-08-01T08:58:44;27.00;99.90
19928;DHT22;10126;50.876;4.470;2022-08-01T09:00:45;26.80;99.90
19928;DHT22;10126;50.876;4.470;2022-08-01T09:02:47;27.10;99.90
19928;DHT22;10126;50.876;4.470;2022-08-01T09:04:50;27.20;99.90
19928;DHT22;10126;50.876;4.470;2022-08-01T09:06:51;28.00;99.90
19928;DHT22;10126;50.876;4.470;2022-08-01T09:08:52;28.10;99.90
19928;DHT22;10126;50.876;4.470;2022-08-01T09:10:53;28.20;99.90
19928;DHT22;10126;50.876;4.470;2022-08-01T09:13:14;29.00;99.90
19928;DHT22;10126;50.876;4.470;2022-08-01T09:15:14;29.20;99.90
19928;DHT22;10126;50.876;4.470;2022-08-01T09:17:15;29.50;99.90
19928;DHT22;10126;50.876;4.470;2022-08-01T09:19:19;29.50;99.90
19928;DHT22;10126;50.876;4.470;2022-08-01T09:21:21;29.90;99.90
19928;DHT22;10126;50.876;4.470;2022-08-01T09:23:38;29.90;99.90
19928;DHT22;10126;50.876;4.470;2022-08-01T09:25:52;29.30;99.90
19928;DHT22;10126;50.876;4.470;2022-08-01T09:28:03;29.20;99.90
19928;DHT22;10126;50.876;4.470;2022-08-01T09:30:13;28.20;99.90
19928;DHT22;10126;50.876;4.470;2022-08-01T09:32:14;27.90;99.90
19928;DHT22;10126;50.876;4.470;2022-08-01T09:34:16;28.40;99.90
19928;DHT22;10126;50.876;4.470;2022-08-01T09:36:26;28.20;99.90
19928;DHT22;10126;50.876;4.470;2022-08-01T09:38:27;28.00;99.90
19928;DHT22;10126;50.876;4.470;2022-08-01T09:42:50;28.50;99.90
19928;DHT22;10126;50.876;4.470;2022-08-01T09:44:53;27.90;99.90
19928;DHT22;10126;50.876;4.470;2022-08-01T09:46:54;27.50;99.90
19928;DHT22;10126;50.876;4.470;2022-08-01T09:48:59;27.40;99.90
19928;DHT22;10126;50.876;4.470;2022-08-01T09:51:02;27.80;99.90
19928;DHT22;10126;50.876;4.470;2022-08-01T09:53:02;28.30;99.90
19928;DHT22;10126;50.876;4.470;2022-08-01T09:55:05;28.10;99.90
19928;DHT22;10126;50.876;4.470;2022-08-01T09:57:11;27.30;99.90
19928;DHT22;10126;50.876;4.470;2022-08-01T09:59:13;29.00;99.90
19928;DHT22;10126;50.876;4.470;2022-08-01T10:01:13;30.30;99.90
19928;DHT22;10126;50.876;4.470;2022-08-01T10:03:20;30.90;99.90
19928;DHT22;10126;50.876;4.470;2022-08-01T10:05:32;33.10;99.90
19928;DHT22;10126;50.876;4.470;2022-08-01T10:07:33;34.80;99.90
19928;DHT22;10126;50.876;4.470;2022-08-01T10:09:35;35.10;99.90
19928;DHT22;10126;50.876;4.470;2022-08-01T10:11:37;34.00;99.90
19928;DHT22;10126;50.876;4.470;2022-08-01T10:13:41;33.50;99.90
19928;DHT22;10126;50.876;4.470;2022-08-01T10:15:41;32.30;99.90
19928;DHT22;10126;50.876;4.470;2022-08-01T10:17:49;31.00;99.90
19928;DHT22;10126;50.876;4.470;2022-08-01T10:19:52;31.10;99.90
19928;DHT22;10126;50.876;4.470;2022-08-01T10:21:56;30.30;99.90
19928;DHT22;10126;50.876;4.470;2022-08-01T10:23:57;29.70;99.90
19928;DHT22;10126;50.876;4.470;2022-08-01T10:26:00;29.30;99.90
19928;DHT22;10126;50.876;4.470;2022-08-01T10:28:10;28.60;99.90
19928;DHT22;10126;50.876;4.470;2022-08-01T10:30:13;27.80;99.90
19928;DHT22;10126;50.876;4.470;2022-08-01T10:32:16;28.40;99.90
19928;DHT22;10126;50.876;4.470;2022-08-01T10:34:17;28.50;99.90
19928;DHT22;10126;50.876;4.470;2022-08-01T10:36:20;28.60;99.90
19928;DHT22;10126;50.876;4.470;2022-08-01T10:38:21;28.60;99.90
19928;DHT22;10126;50.876;4.470;2022-08-01T10:40:23;28.60;99.90
19928;DHT22;10126;50.876;4.470;2022-08-01T10:42:24;29.10;99.90
19928;DHT22;10126;50.876;4.470;2022-08-01T10:44:27;29.20;99.90
19928;DHT22;10126;50.876;4.470;2022-08-01T10:46:30;29.00;99.90
19928;DHT22;10126;50.876;4.470;2022-08-01T10:50:54;28.50;99.90
19928;DHT22;10126;50.876;4.470;2022-08-01T10:55:12;28.50;99.90
19928;DHT22;10126;50.876;4.470;2022-08-01T10:57:13;28.50;99.90
19928;DHT22;10126;50.876;4.470;2022-08-01T11:01:30;29.00;99.90
19928;DHT22;10126;50.876;4.470;2022-08-01T11:03:34;29.00;99.90
19928;DHT22;10126;50.876;4.470;2022-08-01T11:05:36;29.30;99.90
19928;DHT22;10126;50.876;4.470;2022-08-01T11:07:47;29.60;99.90
19928;DHT22;10126;50.876;4.470;2022-08-01T11:10:03;29.60;99.90
19928;DHT22;10126;50.876;4.470;2022-08-01T11:12:12;29.40;99.90
19928;DHT22;10126;50.876;4.470;2022-08-01T11:14:14;28.90;99.90
19928;DHT22;10126;50.876;4.470;2022-08-01T11:16:26;28.70;99.90
19928;DHT22;10126;50.876;4.470;2022-08-01T11:25:04;29.30;99.90
19928;DHT22;10126;50.876;4.470;2022-08-01T11:27:23;29.20;99.90
19928;DHT22;10126;50.876;4.470;2022-08-01T11:29:23;29.00;99.90
19928;DHT22;10126;50.876;4.470;2022-08-01T11:31:26;29.00;99.90
19928;DHT22;10126;50.876;4.470;2022-08-01T11:38:25;29.40;99.90
19928;DHT22;10126;50.876;4.470;2022-08-01T11:40:30;29.40;99.90
19928;DHT22;10126;50.876;4.470;2022-08-01T11:42:31;29.20;99.90
19928;DHT22;10126;50.876;4.470;2022-08-01T11:44:50;29.20;99.90
19928;DHT22;10126;50.876;4.470;2022-08-01T11:46:55;29.40;99.90
19928;DHT22;10126;50.876;4.470;2022-08-01T11:49:42;29.40;99.90
19928;DHT22;10126;50.876;4.470;2022-08-01T11:51:46;29.30;99.90
19928;DHT22;10126;50.876;4.470;2022-08-01T11:53:47;29.20;99.90
19928;DHT22;10126;50.876;4.470;2022-08-01T11:55:49;29.30;99.90
19928;DHT22;10126;50.876;4.470;2022-08-01T11:57:59;29.60;99.90
19928;DHT22;10126;50.876;4.470;2022-08-01T12:00:12;29.70;99.90
19928;DHT22;10126;50.876;4.470;2022-08-01T12:02:17;29.50;99.90
19928;DHT22;10126;50.876;4.470;2022-08-01T12:04:18;29.30;99.90
19928;DHT22;10126;50.876;4.470;2022-08-01T12:06:29;28.90;99.90
19928;DHT22;10126;50.876;4.470;2022-08-01T12:08:32;28.70;99.90
19928;DHT22;10126;50.876;4.470;2022-08-01T12:10:34;28.70;99.90
19928;DHT22;10126;50.876;4.470;2022-08-01T12:12:47;28.80;99.90
19928;DHT22;10126;50.876;4.470;2022-08-01T12:15:00;29.00;99.90
19928;DHT22;10126;50.876;4.470;2022-08-01T12:17:00;29.00;99.90
19928;DHT22;10126;50.876;4.470;2022-08-01T12:19:01;28.80;99.90
19928;DHT22;10126;50.876;4.470;2022-08-01T12:21:03;29.10;99.90
19928;DHT22;10126;50.876;4.470;2022-08-01T12:23:10;29.10;99.90
19928;DHT22;10126;50.876;4.470;2022-08-01T12:25:16;28.50;99.90
19928;DHT22;10126;50.876;4.470;2022-08-01T12:27:27;28.00;99.90
19928;DHT22;10126;50.876;4.470;2022-08-01T12:29:36;28.10;99.90
19928;DHT22;10126;50.876;4.470;2022-08-01T12:31:38;28.00;99.90
19928;DHT22;10126;50.876;4.470;2022-08-01T12:33:38;28.20;99.90
19928;DHT22;10126;50.876;4.470;2022-08-01T12:35:40;28.50;99.90
19928;DHT22;10126;50.876;4.470;2022-08-01T12:37:46;28.30;99.90
19928;DHT22;10126;50.876;4.470;2022-08-01T12:39:48;28.30;99.90
19928;DHT22;10126;50.876;4.470;2022-08-01T12:41:49;28.40;99.90
19928;DHT22;10126;50.876;4.470;2022-08-01T12:43:50;28.50;99.90
19928;DHT22;10126;50.876;4.470;2022-08-01T12:45:51;28.70;99.90
19928;DHT22;10126;50.876;4.470;2022-08-01T12:47:54;28.60;99.90
19928;DHT22;10126;50.876;4.470;2022-08-01T12:49:55;28.80;99.90
19928;DHT22;10126;50.876;4.470;2022-08-01T12:51:56;29.00;99.90
19928;DHT22;10126;50.876;4.470;2022-08-01T12:53:59;29.30;99.90
19928;DHT22;10126;50.876;4.470;2022-08-01T12:56:00;29.40;99.90
19928;DHT22;10126;50.876;4.470;2022-08-01T12:58:08;29.70;99.90
19928;DHT22;10126;50.876;4.470;2022-08-01T13:00:13;29.20;99.90
19928;DHT22;10126;50.876;4.470;2022-08-01T13:02:14;28.90;99.90
19928;DHT22;10126;50.876;4.470;2022-08-01T13:04:14;28.80;99.90
19928;DHT22;10126;50.876;4.470;2022-08-01T13:06:15;29.00;99.90
19928;DHT22;10126;50.876;4.470;2022-08-01T13:08:18;29.20;99.90
19928;DHT22;10126;50.876;4.470;2022-08-01T13:10:28;28.60;99.90
19928;DHT22;10126;50.876;4.470;2022-08-01T13:12:28;28.60;99.90
19928;DHT22;10126;50.876;4.470;2022-08-01T13:14:29;28.60;99.90
19928;DHT22;10126;50.876;4.470;2022-08-01T13:16:30;28.50;99.90
19928;DHT22;10126;50.876;4.470;2022-08-01T13:18:33;28.20;99.90
19928;DHT22;10126;50.876;4.470;2022-08-01T13:20:34;27.90;99.90
19928;DHT22;10126;50.876;4.470;2022-08-01T13:22:36;27.70;99.90